createdAt,value
2022-09-05T00:02:23.285Z,16.12
2022-09-05T00:05:25.150Z,16.28
2022-09-05T00:08:19.698Z,16.09
2022-09-05T00:11:41.346Z,16.33
2022-09-05T00:15:17.721Z,15.91
2022-09-05T00:20:06.406Z,15.93
2022-09-05T00:24:28.688Z,16.04
2022-09-05T00:25:00.750Z,15.82
2022-09-05T00:27:56.742Z,15.98
2022-09-05T00:31:08.881Z,16.05
2022-09-05T00:34:00.576Z,15.91
2022-09-05T00:36:47.654Z,16.10
2022-09-05T00:39:39.863Z,15.88
2022-09-05T00:42:24.118Z,15.88
2022-09-05T00:45:19.420Z,15.83
2022-09-05T00:48:15.700Z,16.09
2022-09-05T00:51:06.393Z,16.04
2022-09-05T00:54:01.893Z,16.20
2022-09-05T00:57:03.802Z,16.26
2022-09-05T01:00:17.286Z,16.25
2022-09-05T01:03:27.402Z,16.05
2022-09-05T01:06:34.878Z,15.94
2022-09-05T01:09:35.267Z,16.04
2022-09-05T01:12:42.110Z,16.14
2022-09-05T01:15:44.645Z,16.13
2022-09-05T01:18:42.619Z,16.27
2022-09-05T01:21:52.000Z,16.23
2022-09-05T01:25:09.957Z,16.20
2022-09-05T01:29:17.388Z,15.99
2022-09-05T01:31:14.177Z,16.22
2022-09-05T01:34:05.067Z,16.20
2022-09-05T01:36:59.964Z,15.94
2022-09-05T01:40:14.866Z,16.26
2022-09-05T01:43:18.859Z,16.03
2022-09-05T01:46:20.792Z,16.21
2022-09-05T01:49:19.290Z,16.26
2022-09-05T01:52:24.088Z,15.85
2022-09-05T01:55:21.039Z,15.84
2022-09-05T01:58:16.987Z,15.19
2022-09-05T02:01:31.603Z,16.09
2022-09-05T02:04:36.591Z,15.65
2022-09-05T02:07:33.304Z,15.69
2022-09-05T02:10:54.763Z,15.75
2022-09-05T02:13:53.595Z,15.71
2022-09-05T02:16:45.197Z,15.67
2022-09-05T02:19:32.645Z,15.66
2022-09-05T02:22:23.870Z,15.09
2022-09-05T02:26:00.670Z,15.51
2022-09-05T02:28:25.767Z,15.52
2022-09-05T02:31:19.520Z,15.45
2022-09-05T02:34:11.633Z,15.44
2022-09-05T02:37:08.334Z,15.25
2022-09-05T02:45:02.495Z,15.36
2022-09-05T02:45:18.589Z,15.35
2022-09-05T02:46:26.271Z,15.26
2022-09-05T02:51:01.245Z,15.21
2022-09-05T02:57:29.067Z,15.21
2022-09-05T02:57:42.488Z,15.17
2022-09-05T02:59:16.059Z,15.40
2022-09-05T03:02:26.187Z,15.25
2022-09-05T03:05:17.480Z,15.25
2022-09-05T03:08:22.629Z,15.49
2022-09-05T03:11:44.388Z,15.47
2022-09-05T03:15:22.249Z,15.41
2022-09-05T03:18:48.563Z,15.48
2022-09-05T03:22:22.607Z,15.29
2022-09-05T03:25:51.018Z,15.49
2022-09-05T03:29:16.589Z,15.56
2022-09-05T03:32:43.096Z,15.50
2022-09-05T03:36:00.083Z,15.42
2022-09-05T03:39:32.398Z,15.46
2022-09-05T03:42:32.496Z,15.50
2022-09-05T03:45:37.543Z,15.65
2022-09-05T03:48:51.215Z,15.64
2022-09-05T03:57:06.747Z,15.68
2022-09-05T03:57:17.820Z,15.52
2022-09-05T03:58:57.172Z,15.61
2022-09-05T04:07:08.727Z,15.60
2022-09-05T04:08:19.425Z,15.53
2022-09-05T04:08:32.081Z,15.55
2022-09-05T04:11:17.964Z,15.35
2022-09-05T04:14:07.258Z,15.48
2022-09-05T04:16:54.765Z,15.63
2022-09-05T04:19:49.952Z,15.62
2022-09-05T04:23:00.678Z,15.85
2022-09-05T04:26:01.444Z,15.92
2022-09-05T04:29:04.533Z,15.87
2022-09-05T04:32:15.393Z,15.95
2022-09-05T04:35:16.070Z,15.92
2022-09-05T04:38:10.008Z,16.12
2022-09-05T04:41:03.576Z,15.95
2022-09-05T04:43:50.751Z,16.21
2022-09-05T04:46:47.877Z,16.39
2022-09-05T04:49:38.532Z,16.50
2022-09-05T04:53:01.605Z,16.61
2022-09-05T04:55:51.008Z,16.84
2022-09-05T04:59:36.268Z,16.72
2022-09-05T05:06:02.872Z,16.81
2022-09-05T05:06:14.487Z,17.11
2022-09-05T05:08:13.864Z,17.16
2022-09-05T05:15:29.440Z,16.25
2022-09-05T05:17:54.427Z,17.48
2022-09-05T05:18:15.328Z,17.54
2022-09-05T05:20:42.881Z,17.56
2022-09-05T05:23:38.391Z,17.79
2022-09-05T05:26:25.527Z,18.00
2022-09-05T05:29:19.577Z,18.13
2022-09-05T05:32:05.960Z,18.18
2022-09-05T05:34:55.283Z,18.31
2022-09-05T05:37:44.762Z,18.43
2022-09-05T05:40:31.752Z,18.45
2022-09-05T05:43:30.138Z,18.60
2022-09-05T05:46:29.148Z,18.55
2022-09-05T05:49:28.982Z,18.59
2022-09-05T05:52:45.631Z,18.95
2022-09-05T05:56:01.919Z,19.29
2022-09-05T05:59:04.413Z,19.19
2022-09-05T06:02:16.338Z,19.47
2022-09-05T06:05:21.423Z,19.59
2022-09-05T06:11:09.473Z,19.90
2022-09-05T06:15:02.366Z,20.00
2022-09-05T06:15:42.363Z,19.53
2022-09-05T06:19:08.316Z,20.22
2022-09-05T06:22:19.362Z,20.03
2022-09-05T06:25:50.480Z,20.04
2022-09-05T06:28:45.881Z,19.55
2022-09-05T06:31:45.869Z,19.96
2022-09-05T06:34:59.916Z,20.09
2022-09-05T06:37:52.616Z,19.75
2022-09-05T06:40:43.527Z,20.23
2022-09-05T06:43:56.620Z,20.83
2022-09-05T06:46:54.936Z,20.68
2022-09-05T06:50:04.437Z,20.99
2022-09-05T06:53:35.195Z,20.67
2022-09-05T06:56:30.832Z,20.88
2022-09-05T06:59:54.227Z,20.90
2022-09-05T07:02:58.965Z,20.96
2022-09-05T07:05:56.592Z,21.08
2022-09-05T07:08:51.790Z,21.10
2022-09-05T07:11:46.254Z,21.12
2022-09-05T07:14:36.139Z,21.90
2022-09-05T07:17:25.538Z,21.63
2022-09-05T07:20:22.032Z,21.55
2022-09-05T07:24:06.859Z,21.26
2022-09-05T07:26:51.401Z,21.58
2022-09-05T07:29:32.563Z,21.29
2022-09-05T07:32:24.244Z,21.33
2022-09-05T07:35:15.044Z,21.57
2022-09-05T07:38:13.928Z,21.40
2022-09-05T07:41:04.538Z,21.81
2022-09-05T07:43:50.931Z,21.52
2022-09-05T07:46:38.901Z,21.43
2022-09-05T07:49:28.342Z,20.81
2022-09-05T07:56:50.219Z,20.85
2022-09-05T07:57:16.082Z,21.10
2022-09-05T07:58:41.553Z,21.24
2022-09-05T08:01:25.790Z,20.85
2022-09-05T08:04:11.035Z,21.53
2022-09-05T08:07:46.878Z,21.57
2022-09-05T08:10:10.305Z,21.76
2022-09-05T08:13:23.773Z,21.65
2022-09-05T08:16:15.239Z,21.53
2022-09-05T08:19:21.729Z,21.72
2022-09-05T08:22:07.803Z,22.19
2022-09-05T08:25:02.374Z,22.32
2022-09-05T08:28:03.337Z,22.81
2022-09-05T08:30:54.071Z,22.75
2022-09-05T08:33:39.501Z,23.54
2022-09-05T08:36:32.166Z,23.90
2022-09-05T08:39:21.390Z,23.46
2022-09-05T08:42:14.600Z,23.62
2022-09-05T08:46:40.019Z,24.50
2022-09-05T08:48:31.691Z,23.97
2022-09-05T08:51:30.997Z,24.33
2022-09-05T08:54:23.782Z,24.47
2022-09-05T08:57:19.260Z,24.36
2022-09-05T09:00:19.179Z,24.16
2022-09-05T09:03:15.183Z,23.80
2022-09-05T09:06:30.225Z,23.32
2022-09-05T09:09:19.603Z,23.57
2022-09-05T09:12:15.385Z,24.12
2022-09-05T09:15:02.755Z,24.38
2022-09-05T09:17:50.737Z,23.94
2022-09-05T09:20:48.083Z,23.82
2022-09-05T09:23:48.616Z,23.81
2022-09-05T09:26:42.062Z,23.43
2022-09-05T09:29:27.876Z,23.77
2022-09-05T09:32:19.359Z,24.46
2022-09-05T09:35:08.563Z,24.54
2022-09-05T09:38:08.981Z,23.63
2022-09-05T09:41:32.702Z,23.37
2022-09-05T09:44:58.127Z,23.40
2022-09-05T09:48:01.945Z,23.26
2022-09-05T09:51:04.613Z,23.90
2022-09-05T09:54:00.715Z,24.29
2022-09-05T09:57:24.577Z,24.40
2022-09-05T10:00:12.047Z,24.18
2022-09-05T10:06:20.099Z,23.70
2022-09-05T10:10:48.842Z,24.31
2022-09-05T10:11:00.624Z,24.34
2022-09-05T10:13:58.378Z,24.64
2022-09-05T10:17:09.557Z,24.44
2022-09-05T10:20:20.807Z,24.41
2022-09-05T10:23:21.589Z,24.23
2022-09-05T10:26:47.343Z,24.27
2022-09-05T10:29:56.513Z,24.44
2022-09-05T10:35:14.792Z,25.00
2022-09-05T10:36:02.994Z,25.33
2022-09-05T10:38:54.263Z,25.13
2022-09-05T10:41:50.033Z,25.12
2022-09-05T10:44:40.689Z,24.00
2022-09-05T10:47:40.490Z,23.52
2022-09-05T10:50:30.418Z,23.65
2022-09-05T10:53:31.111Z,23.55
2022-09-05T10:56:28.620Z,23.95
2022-09-05T11:01:43.189Z,24.13
2022-09-05T11:02:38.572Z,23.45
2022-09-05T11:05:28.026Z,24.20
2022-09-05T11:08:22.838Z,23.24
2022-09-05T11:10:53.331Z,23.34
2022-09-05T11:13:36.566Z,23.41
2022-09-05T11:16:13.647Z,23.03
2022-09-05T11:18:56.142Z,23.62
2022-09-05T11:21:27.519Z,23.34
2022-09-05T11:23:57.429Z,22.77
2022-09-05T11:26:32.090Z,22.79
2022-09-05T11:29:05.584Z,23.31
2022-09-05T11:32:25.381Z,22.52
2022-09-05T11:39:53.197Z,22.69
2022-09-05T11:40:04.116Z,22.41
2022-09-05T11:41:05.324Z,21.94
2022-09-05T11:44:24.878Z,22.05
2022-09-05T11:46:55.128Z,22.34
2022-09-05T11:49:46.022Z,22.37
2022-09-05T11:52:53.753Z,22.34
2022-09-05T11:55:47.736Z,22.81
2022-09-05T11:58:47.195Z,22.57
2022-09-05T12:01:43.503Z,22.86
2022-09-05T12:04:19.755Z,22.61
2022-09-05T12:07:27.015Z,21.95
2022-09-05T12:10:00.684Z,22.19
2022-09-05T12:12:41.416Z,22.12
2022-09-05T12:15:33.945Z,22.19
2022-09-05T12:18:24.241Z,22.10
2022-09-05T12:20:57.641Z,21.81
2022-09-05T12:23:54.049Z,21.93
2022-09-05T12:27:39.580Z,22.11
2022-09-05T12:29:33.692Z,22.51
2022-09-05T12:33:07.528Z,22.37
2022-09-05T12:36:12.499Z,23.01
2022-09-05T12:40:25.476Z,22.93
2022-09-05T12:41:35.078Z,22.51
2022-09-05T12:44:36.858Z,22.43
2022-09-05T12:46:13.575Z,22.28
2022-09-05T12:49:00.351Z,22.69
2022-09-05T12:51:46.177Z,22.50
2022-09-05T12:54:32.701Z,22.81
2022-09-05T13:01:53.151Z,23.36
2022-09-05T13:03:04.488Z,23.52
2022-09-05T13:03:05.549Z,23.09
2022-09-05T13:05:27.934Z,23.22
2022-09-05T13:07:58.335Z,23.80
2022-09-05T13:13:03.929Z,24.23
2022-09-05T13:14:49.526Z,24.79
2022-09-05T13:16:03.438Z,24.47
2022-09-05T13:18:37.456Z,24.50
2022-09-05T13:21:08.494Z,24.74
2022-09-05T13:23:39.594Z,24.09
2022-09-05T13:26:11.502Z,24.41
2022-09-05T13:29:00.174Z,24.30
2022-09-05T13:37:58.028Z,23.44
2022-09-05T13:38:02.790Z,23.96
2022-09-05T13:38:20.680Z,24.73
2022-09-05T13:40:27.941Z,23.24
2022-09-05T13:43:05.064Z,23.00
2022-09-05T13:45:29.667Z,23.24
2022-09-05T13:48:06.343Z,23.30
2022-09-05T13:50:35.137Z,23.66
2022-09-05T13:53:04.967Z,23.67
2022-09-05T13:55:44.182Z,23.43
2022-09-05T13:58:15.612Z,23.82
2022-09-05T14:01:17.629Z,23.47
2022-09-05T14:05:05.350Z,23.01
2022-09-05T14:07:46.007Z,22.86
2022-09-05T14:10:39.340Z,23.02
2022-09-05T14:13:08.476Z,22.68
2022-09-05T14:15:42.565Z,23.01
2022-09-05T14:18:21.341Z,22.64
2022-09-05T14:21:10.489Z,23.59
2022-09-05T14:23:45.066Z,24.46
2022-09-05T14:26:18.485Z,24.07
2022-09-05T14:28:51.222Z,23.59
2022-09-05T14:36:11.016Z,23.18
2022-09-05T14:37:48.385Z,22.73
2022-09-05T14:37:49.875Z,22.50
2022-09-05T14:41:15.187Z,22.74
2022-09-05T14:44:02.143Z,23.15
2022-09-05T14:46:55.939Z,22.97
2022-09-05T14:49:40.677Z,22.64
2022-09-05T14:52:15.724Z,22.68
2022-09-05T15:02:39.817Z,22.53
2022-09-05T15:02:45.054Z,22.60
2022-09-05T15:03:08.824Z,22.26
2022-09-05T15:05:44.918Z,22.00
2022-09-05T15:09:27.272Z,22.33
2022-09-05T15:12:19.782Z,22.48
2022-09-05T15:13:57.198Z,22.53
2022-09-05T15:16:25.737Z,21.99
2022-09-05T15:18:50.897Z,22.18
2022-09-05T15:21:33.691Z,22.12
2022-09-05T15:24:01.429Z,22.09
2022-09-05T15:26:25.811Z,22.50
2022-09-05T15:28:52.400Z,22.65
2022-09-05T15:31:38.316Z,22.91
2022-09-05T15:34:21.947Z,22.41
2022-09-05T15:36:46.124Z,22.32
2022-09-05T15:39:22.285Z,22.27
2022-09-05T15:41:46.544Z,22.24
2022-09-05T15:44:14.943Z,22.26
2022-09-05T15:46:49.299Z,21.98
2022-09-05T15:49:25.700Z,21.49
2022-09-05T15:51:52.849Z,21.75
2022-09-05T15:54:37.666Z,21.80
2022-09-05T15:57:06.740Z,21.95
2022-09-05T15:59:35.844Z,21.80
2022-09-05T16:02:08.520Z,21.50
2022-09-05T16:10:30.912Z,21.89
2022-09-05T16:10:40.244Z,21.54
2022-09-05T16:10:57.770Z,21.80
2022-09-05T16:12:56.060Z,21.53
2022-09-05T16:17:44.754Z,21.61
2022-09-05T16:23:18.322Z,21.45
2022-09-05T16:23:33.822Z,21.51
2022-09-05T16:23:52.975Z,21.22
2022-09-05T16:26:42.959Z,21.07
2022-09-05T16:29:13.699Z,20.89
2022-09-05T16:31:44.291Z,20.76
2022-09-05T16:34:28.729Z,21.05
2022-09-05T16:37:07.783Z,21.04
2022-09-05T16:39:38.182Z,20.85
2022-09-05T16:42:05.762Z,20.85
2022-09-05T16:44:35.767Z,20.80
2022-09-05T16:47:11.259Z,20.68
2022-09-05T16:49:43.146Z,20.55
2022-09-05T16:52:09.360Z,20.63
2022-09-05T16:54:48.068Z,20.65
2022-09-05T16:57:18.481Z,20.44
2022-09-05T16:59:45.512Z,20.06
2022-09-05T17:02:11.202Z,19.75
2022-09-05T17:05:04.520Z,19.37
2022-09-05T17:07:39.914Z,19.40
2022-09-05T17:10:09.743Z,19.21
2022-09-05T17:12:38.594Z,19.12
2022-09-05T17:15:10.227Z,18.94
2022-09-05T17:18:21.676Z,18.70
2022-09-05T17:20:37.839Z,18.57
2022-09-05T17:29:17.526Z,18.79
2022-09-05T17:29:36.535Z,18.75
2022-09-05T17:29:36.537Z,18.81
2022-09-05T17:31:56.180Z,18.87
2022-09-05T17:34:49.706Z,18.93
2022-09-05T17:37:33.968Z,18.72
2022-09-05T17:40:08.754Z,18.31
2022-09-05T17:42:44.207Z,18.53
2022-09-05T17:45:16.325Z,18.59
2022-09-05T17:47:48.392Z,18.28
2022-09-05T17:50:51.273Z,17.45
2022-09-05T17:53:25.748Z,17.89
2022-09-05T17:56:14.400Z,18.19
2022-09-05T17:58:49.718Z,18.23
2022-09-05T18:01:26.611Z,18.09
2022-09-05T18:04:16.085Z,18.05
2022-09-05T18:06:43.977Z,17.84
2022-09-05T18:10:12.091Z,17.98
2022-09-05T18:13:12.723Z,17.66
2022-09-05T18:16:12.559Z,17.86
2022-09-05T18:19:32.230Z,17.84
2022-09-05T18:21:23.023Z,17.68
2022-09-05T18:23:54.370Z,17.73
2022-09-05T18:26:24.962Z,17.82
2022-09-05T18:29:01.685Z,17.91
2022-09-05T18:32:01.677Z,17.75
2022-09-05T18:35:09.074Z,17.83
2022-09-05T18:37:53.710Z,17.77
2022-09-05T18:40:40.903Z,17.76
2022-09-05T18:43:14.276Z,17.97
2022-09-05T18:45:52.523Z,17.97
2022-09-05T18:48:28.280Z,17.98
2022-09-05T18:50:56.116Z,17.98
2022-09-05T18:53:40.152Z,17.89
2022-09-05T18:56:20.520Z,17.85
2022-09-05T18:59:09.405Z,17.86
2022-09-05T19:01:39.301Z,17.82
2022-09-05T19:04:09.738Z,17.92
2022-09-05T19:06:55.297Z,17.46
2022-09-05T19:09:28.750Z,17.81
2022-09-05T19:12:34.533Z,17.70
2022-09-05T19:14:53.671Z,18.02
2022-09-05T19:17:27.383Z,17.97
2022-09-05T19:20:31.802Z,18.05
2022-09-05T19:23:11.090Z,17.96
2022-09-05T19:25:40.379Z,17.93
2022-09-05T19:34:09.903Z,17.74
2022-09-05T19:36:46.724Z,17.75
2022-09-05T19:37:05.137Z,17.64
2022-09-05T19:37:25.584Z,17.63
2022-09-05T19:43:48.409Z,17.75
2022-09-05T19:47:29.719Z,17.65
2022-09-05T19:47:44.914Z,17.53
2022-09-05T19:48:07.502Z,17.78
2022-09-05T19:50:32.695Z,17.84
2022-09-05T19:53:08.069Z,17.71
2022-09-05T19:55:36.835Z,17.68
2022-09-05T19:58:28.089Z,17.73
2022-09-05T20:01:00.925Z,17.55
2022-09-05T20:03:27.740Z,17.63
2022-09-05T20:05:52.310Z,17.20
2022-09-05T20:08:17.045Z,17.30
2022-09-05T20:10:42.097Z,17.57
2022-09-05T20:13:21.439Z,17.35
2022-09-05T20:15:45.676Z,17.60
2022-09-05T20:18:20.893Z,17.64
2022-09-05T20:20:54.357Z,17.41
2022-09-05T20:23:20.021Z,17.16
2022-09-05T20:25:47.507Z,17.23
2022-09-05T20:28:15.810Z,17.25
2022-09-05T20:30:44.773Z,17.39
2022-09-05T20:33:23.016Z,17.30
2022-09-05T20:40:35.805Z,16.81
2022-09-05T20:43:20.078Z,17.20
2022-09-05T20:43:21.746Z,17.33
2022-09-05T20:44:22.949Z,17.35
2022-09-05T20:51:37.903Z,17.30
2022-09-05T20:54:22.586Z,17.34
2022-09-05T20:54:28.650Z,17.43
2022-09-05T20:55:39.389Z,17.28
2022-09-05T20:58:10.439Z,17.48
2022-09-05T21:00:34.470Z,17.31
2022-09-05T21:03:00.851Z,17.39
2022-09-05T21:05:28.599Z,17.31
2022-09-05T21:08:07.437Z,17.30
2022-09-05T21:10:33.855Z,17.58
2022-09-05T21:13:23.445Z,17.33
2022-09-05T21:15:53.262Z,17.68
2022-09-05T21:18:19.796Z,17.48
2022-09-05T21:20:53.358Z,17.40
2022-09-05T21:23:21.987Z,17.38
2022-09-05T21:25:54.835Z,17.36
2022-09-05T21:28:32.702Z,17.21
2022-09-05T21:31:03.940Z,17.18
2022-09-05T21:33:45.413Z,17.14
2022-09-05T21:36:12.042Z,16.98
2022-09-05T21:38:41.298Z,17.19
2022-09-05T21:41:09.439Z,17.12
2022-09-05T21:47:39.156Z,17.13
2022-09-05T21:47:39.906Z,17.29
2022-09-05T21:49:10.295Z,17.26
2022-09-05T21:51:34.572Z,17.12
2022-09-05T21:59:13.295Z,17.13
2022-09-05T21:59:21.636Z,17.13
2022-09-05T21:59:47.023Z,17.03
2022-09-05T22:02:11.686Z,17.10
2022-09-05T22:04:40.906Z,16.99
2022-09-05T22:07:06.443Z,17.08
2022-09-05T22:09:30.946Z,16.99
2022-09-05T22:11:56.566Z,17.01
2022-09-05T22:14:22.041Z,17.12
2022-09-05T22:16:47.536Z,17.09
2022-09-05T22:19:12.842Z,17.18
2022-09-05T22:21:38.856Z,16.82
2022-09-05T22:24:06.295Z,16.91
2022-09-05T22:26:38.049Z,16.96
2022-09-05T22:29:09.752Z,17.08
2022-09-05T22:31:33.894Z,17.00
2022-09-05T22:33:58.222Z,17.01
2022-09-05T22:36:22.737Z,16.99
2022-09-05T22:38:47.748Z,17.01
2022-09-05T22:41:12.818Z,16.71
2022-09-05T22:43:37.048Z,16.77
2022-09-05T22:46:03.673Z,16.74
2022-09-05T22:48:27.867Z,16.79
2022-09-05T22:50:52.438Z,16.67
2022-09-05T22:53:16.541Z,16.97
2022-09-05T22:55:43.749Z,16.94
2022-09-05T22:58:09.983Z,17.04
2022-09-05T23:00:34.720Z,16.88
2022-09-05T23:03:00.897Z,16.83
2022-09-05T23:05:25.035Z,16.57
2022-09-05T23:07:49.069Z,16.54
2022-09-05T23:10:13.055Z,16.63
2022-09-05T23:12:37.773Z,16.69
2022-09-05T23:15:01.813Z,16.73
2022-09-05T23:17:27.751Z,16.58
2022-09-05T23:19:53.221Z,16.62
2022-09-05T23:22:17.248Z,16.76
2022-09-05T23:24:41.158Z,16.51
2022-09-05T23:27:05.375Z,16.59
2022-09-05T23:29:29.328Z,16.58
2022-09-05T23:31:53.319Z,16.62
2022-09-05T23:34:17.508Z,16.45
2022-09-05T23:36:42.893Z,16.64
2022-09-05T23:39:06.894Z,16.54
2022-09-05T23:41:32.424Z,16.58
2022-09-05T23:43:56.657Z,16.68
2022-09-05T23:46:20.934Z,16.47
2022-09-05T23:48:45.314Z,16.27
2022-09-05T23:51:12.014Z,16.41
2022-09-05T23:53:37.849Z,16.59
2022-09-05T23:56:02.090Z,16.67
2022-09-05T23:58:26.347Z,16.58
